sensor_id;sensor_type;location;lat;lon;timestamp;temperature;humidity
20400;DHT22;10359;53.596;22.520;2024-01-15T00:00:14;2.00;1.00
20400;DHT22;10359;53.596;22.520;2024-01-15T00:03:11;2.00;1.00
20400;DHT22;10359;53.596;22.520;2024-01-15T00:06:02;2.00;1.00
20400;DHT22;10359;53.596;22.520;2024-01-15T00:08:58;1.90;1.00
20400;DHT22;10359;53.596;22.520;2024-01-15T00:11:54;2.00;1.00
20400;DHT22;10359;53.596;22.520;2024-01-15T00:14:43;2.10;1.00
20400;DHT22;10359;53.596;22.520;2024-01-15T00:17:40;2.10;1.00
20400;DHT22;10359;53.596;22.520;2024-01-15T00:20:29;2.10;1.00
20400;DHT22;10359;53.596;22.520;2024-01-15T00:23:26;2.00;1.00
20400;DHT22;10359;53.596;22.520;2024-01-15T00:26:16;2.00;1.00
20400;DHT22;10359;53.596;22.520;2024-01-15T00:29:11;2.10;1.00
20400;DHT22;10359;53.596;22.520;2024-01-15T00:32:08;2.00;1.00
20400;DHT22;10359;53.596;22.520;2024-01-15T00:34:58;2.00;12.40
20400;DHT22;10359;53.596;22.520;2024-01-15T00:37:54;1.90;12.30
20400;DHT22;10359;53.596;22.520;2024-01-15T00:40:45;2.00;99.90
20400;DHT22;10359;53.596;22.520;2024-01-15T00:43:41;1.90;99.90
20400;DHT22;10359;53.596;22.520;2024-01-15T00:46:13;1.80;99.90
20400;DHT22;10359;53.596;22.520;2024-01-15T00:48:48;1.80;99.90
20400;DHT22;10359;53.596;22.520;2024-01-15T00:51:37;1.80;99.90
20400;DHT22;10359;53.596;22.520;2024-01-15T00:54:33;1.90;99.90
20400;DHT22;10359;53.596;22.520;2024-01-15T00:57:30;1.90;99.90
20400;DHT22;10359;53.596;22.520;2024-01-15T01:00:20;2.00;99.90
20400;DHT22;10359;53.596;22.520;2024-01-15T01:03:01;2.00;99.90
20400;DHT22;10359;53.596;22.520;2024-01-15T01:05:30;2.00;99.90
20400;DHT22;10359;53.596;22.520;2024-01-15T01:08:26;1.90;99.90
20400;DHT22;10359;53.596;22.520;2024-01-15T01:11:16;1.90;99.90
20400;DHT22;10359;53.596;22.520;2024-01-15T01:14:13;1.90;99.90
20400;DHT22;10359;53.596;22.520;2024-01-15T01:17:09;1.90;99.90
20400;DHT22;10359;53.596;22.520;2024-01-15T01:20:06;1.90;99.90
20400;DHT22;10359;53.596;22.520;2024-01-15T01:23:12;1.90;99.90
20400;DHT22;10359;53.596;22.520;2024-01-15T01:26:02;1.90;99.90
20400;DHT22;10359;53.596;22.520;2024-01-15T01:28:57;1.90;99.90
20400;DHT22;10359;53.596;22.520;2024-01-15T01:31:55;1.90;99.90
20400;DHT22;10359;53.596;22.520;2024-01-15T01:34:44;1.80;99.90
20400;DHT22;10359;53.596;22.520;2024-01-15T01:37:40;1.80;99.90
20400;DHT22;10359;53.596;22.520;2024-01-15T01:40:36;1.80;99.90
20400;DHT22;10359;53.596;22.520;2024-01-15T01:43:38;1.80;99.90
20400;DHT22;10359;53.596;22.520;2024-01-15T01:46:28;1.70;99.90
20400;DHT22;10359;53.596;22.520;2024-01-15T01:49:26;1.80;99.90
20400;DHT22;10359;53.596;22.520;2024-01-15T01:52:22;1.80;98.70
20400;DHT22;10359;53.596;22.520;2024-01-15T01:55:12;1.80;88.60
20400;DHT22;10359;53.596;22.520;2024-01-15T01:58:08;1.80;99.90
20400;DHT22;10359;53.596;22.520;2024-01-15T02:00:58;1.90;96.90
20400;DHT22;10359;53.596;22.520;2024-01-15T02:04:00;1.90;87.30
20400;DHT22;10359;53.596;22.520;2024-01-15T02:06:38;1.90;99.90
20400;DHT22;10359;53.596;22.520;2024-01-15T02:09:08;1.80;99.90
20400;DHT22;10359;53.596;22.520;2024-01-15T02:11:46;1.70;99.90
20400;DHT22;10359;53.596;22.520;2024-01-15T02:14:16;1.60;99.90
20400;DHT22;10359;53.596;22.520;2024-01-15T02:16:52;1.70;99.90
20400;DHT22;10359;53.596;22.520;2024-01-15T02:19:41;1.70;99.90
20400;DHT22;10359;53.596;22.520;2024-01-15T02:22:39;1.70;99.90
20400;DHT22;10359;53.596;22.520;2024-01-15T02:25:30;1.80;99.90
20400;DHT22;10359;53.596;22.520;2024-01-15T02:28:26;1.80;99.90
20400;DHT22;10359;53.596;22.520;2024-01-15T02:31:22;1.80;99.90
20400;DHT22;10359;53.596;22.520;2024-01-15T02:34:12;1.80;99.90
20400;DHT22;10359;53.596;22.520;2024-01-15T02:37:14;1.80;99.90
20400;DHT22;10359;53.596;22.520;2024-01-15T02:40:04;1.80;99.90
20400;DHT22;10359;53.596;22.520;2024-01-15T02:43:02;1.80;99.90
20400;DHT22;10359;53.596;22.520;2024-01-15T02:45:51;1.80;99.90
20400;DHT22;10359;53.596;22.520;2024-01-15T02:48:47;1.70;99.90
20400;DHT22;10359;53.596;22.520;2024-01-15T02:51:37;1.60;99.90
20400;DHT22;10359;53.596;22.520;2024-01-15T02:54:33;1.60;99.90
20400;DHT22;10359;53.596;22.520;2024-01-15T02:57:29;1.50;99.90
20400;DHT22;10359;53.596;22.520;2024-01-15T03:00:20;1.60;99.90
20400;DHT22;10359;53.596;22.520;2024-01-15T03:03:16;1.70;99.90
20400;DHT22;10359;53.596;22.520;2024-01-15T03:06:06;1.70;99.90
20400;DHT22;10359;53.596;22.520;2024-01-15T03:09:02;1.80;99.90
20400;DHT22;10359;53.596;22.520;2024-01-15T03:11:52;1.70;99.90
20400;DHT22;10359;53.596;22.520;2024-01-15T03:14:47;1.80;99.90
20400;DHT22;10359;53.596;22.520;2024-01-15T03:17:45;1.80;99.90
20400;DHT22;10359;53.596;22.520;2024-01-15T03:20:35;1.80;99.90
20400;DHT22;10359;53.596;22.520;2024-01-15T03:23:37;1.70;48.30
20400;DHT22;10359;53.596;22.520;2024-01-15T03:26:26;1.70;99.90
20400;DHT22;10359;53.596;22.520;2024-01-15T03:29:22;1.70;99.90
20400;DHT22;10359;53.596;22.520;2024-01-15T03:32:12;1.70;99.90
20400;DHT22;10359;53.596;22.520;2024-01-15T03:35:10;1.70;72.20
20400;DHT22;10359;53.596;22.520;2024-01-15T03:38:12;1.70;78.60
20400;DHT22;10359;53.596;22.520;2024-01-15T03:41:02;1.70;98.00
20400;DHT22;10359;53.596;22.520;2024-01-15T03:43:57;1.70;62.80
20400;DHT22;10359;53.596;22.520;2024-01-15T03:46:47;1.80;90.10
20400;DHT22;10359;53.596;22.520;2024-01-15T03:49:43;1.80;33.00
20400;DHT22;10359;53.596;22.520;2024-01-15T03:52:34;1.70;24.20
20400;DHT22;10359;53.596;22.520;2024-01-15T03:55:30;1.80;49.30
20400;DHT22;10359;53.596;22.520;2024-01-15T03:58:26;1.90;58.70
20400;DHT22;10359;53.596;22.520;2024-01-15T04:01:15;1.90;45.00
20400;DHT22;10359;53.596;22.520;2024-01-15T04:04:11;1.90;12.50
20400;DHT22;10359;53.596;22.520;2024-01-15T04:07:04;1.90;12.20
20400;DHT22;10359;53.596;22.520;2024-01-15T04:10:02;1.90;12.70
20400;DHT22;10359;53.596;22.520;2024-01-15T04:12:58;1.90;20.20
20400;DHT22;10359;53.596;22.520;2024-01-15T04:15:49;1.90;12.60
20400;DHT22;10359;53.596;22.520;2024-01-15T04:18:45;1.60;71.20
20400;DHT22;10359;53.596;22.520;2024-01-15T04:21:41;1.80;12.20
20400;DHT22;10359;53.596;22.520;2024-01-15T04:24:37;1.80;16.10
20400;DHT22;10359;53.596;22.520;2024-01-15T04:27:35;1.80;30.00
20400;DHT22;10359;53.596;22.520;2024-01-15T04:30:24;1.80;12.80
20400;DHT22;10359;53.596;22.520;2024-01-15T04:33:20;1.60;12.40
20400;DHT22;10359;53.596;22.520;2024-01-15T04:36:10;1.60;64.00
20400;DHT22;10359;53.596;22.520;2024-01-15T04:39:06;1.50;99.90
20400;DHT22;10359;53.596;22.520;2024-01-15T04:42:03;1.50;99.90
20400;DHT22;10359;53.596;22.520;2024-01-15T04:45:01;1.50;99.90
20400;DHT22;10359;53.596;22.520;2024-01-15T04:47:58;1.50;99.90
20400;DHT22;10359;53.596;22.520;2024-01-15T04:50:54;1.60;99.90
20400;DHT22;10359;53.596;22.520;2024-01-15T04:53:43;1.60;99.90
20400;DHT22;10359;53.596;22.520;2024-01-15T04:56:39;1.70;99.90
20400;DHT22;10359;53.596;22.520;2024-01-15T04:59:35;1.70;99.90
20400;DHT22;10359;53.596;22.520;2024-01-15T05:02:33;1.70;99.90
20400;DHT22;10359;53.596;22.520;2024-01-15T05:05:22;1.70;99.90
20400;DHT22;10359;53.596;22.520;2024-01-15T05:08:18;1.70;99.90
20400;DHT22;10359;53.596;22.520;2024-01-15T05:11:14;1.70;73.10
20400;DHT22;10359;53.596;22.520;2024-01-15T05:14:10;1.70;84.40
20400;DHT22;10359;53.596;22.520;2024-01-15T05:16:59;1.70;99.90
20400;DHT22;10359;53.596;22.520;2024-01-15T05:19:59;1.80;99.90
20400;DHT22;10359;53.596;22.520;2024-01-15T05:22:49;1.80;99.90
20400;DHT22;10359;53.596;22.520;2024-01-15T05:25:45;1.70;96.00
20400;DHT22;10359;53.596;22.520;2024-01-15T05:28:43;1.80;92.00
20400;DHT22;10359;53.596;22.520;2024-01-15T05:31:32;1.80;96.80
20400;DHT22;10359;53.596;22.520;2024-01-15T05:34:29;1.70;64.50
20400;DHT22;10359;53.596;22.520;2024-01-15T05:37:20;1.80;97.10
20400;DHT22;10359;53.596;22.520;2024-01-15T05:40:22;1.30;38.30
20400;DHT22;10359;53.596;22.520;2024-01-15T05:43:18;1.60;94.30
20400;DHT22;10359;53.596;22.520;2024-01-15T05:46:15;1.60;32.80
20400;DHT22;10359;53.596;22.520;2024-01-15T05:49:11;1.70;88.80
20400;DHT22;10359;53.596;22.520;2024-01-15T05:52:02;1.80;83.30
20400;DHT22;10359;53.596;22.520;2024-01-15T05:54:59;1.90;58.80
20400;DHT22;10359;53.596;22.520;2024-01-15T05:57:48;1.80;23.00
20400;DHT22;10359;53.596;22.520;2024-01-15T06:00:44;1.80;76.90
20400;DHT22;10359;53.596;22.520;2024-01-15T06:03:40;1.80;26.20
20400;DHT22;10359;53.596;22.520;2024-01-15T06:06:16;1.80;12.20
20400;DHT22;10359;53.596;22.520;2024-01-15T06:08:52;1.80;12.20
20400;DHT22;10359;53.596;22.520;2024-01-15T06:11:43;1.90;12.50
20400;DHT22;10359;53.596;22.520;2024-01-15T06:14:39;1.90;12.40
20400;DHT22;10359;53.596;22.520;2024-01-15T06:17:35;1.90;2.50
20400;DHT22;10359;53.596;22.520;2024-01-15T06:20:31;1.90;12.30
20400;DHT22;10359;53.596;22.520;2024-01-15T06:23:21;1.90;12.20
20400;DHT22;10359;53.596;22.520;2024-01-15T06:26:16;1.90;12.30
20400;DHT22;10359;53.596;22.520;2024-01-15T06:29:07;1.80;12.10
20400;DHT22;10359;53.596;22.520;2024-01-15T06:32:04;1.80;12.20
20400;DHT22;10359;53.596;22.520;2024-01-15T06:34:53;1.80;12.40
20400;DHT22;10359;53.596;22.520;2024-01-15T06:37:55;1.80;12.30
20400;DHT22;10359;53.596;22.520;2024-01-15T06:40:51;1.90;12.30
20400;DHT22;10359;53.596;22.520;2024-01-15T06:43:47;1.90;12.10
20400;DHT22;10359;53.596;22.520;2024-01-15T06:46:42;1.90;1.00
20400;DHT22;10359;53.596;22.520;2024-01-15T06:49:38;1.90;1.00
20400;DHT22;10359;53.596;22.520;2024-01-15T06:52:34;1.90;1.00
20400;DHT22;10359;53.596;22.520;2024-01-15T06:55:24;1.90;1.00
20400;DHT22;10359;53.596;22.520;2024-01-15T06:58:21;1.90;1.00
20400;DHT22;10359;53.596;22.520;2024-01-15T07:01:11;2.00;1.00
20400;DHT22;10359;53.596;22.520;2024-01-15T07:04:09;2.00;1.00
20400;DHT22;10359;53.596;22.520;2024-01-15T07:07:02;2.00;1.00
20400;DHT22;10359;53.596;22.520;2024-01-15T07:09:58;2.00;1.00
20400;DHT22;10359;53.596;22.520;2024-01-15T07:12:48;2.00;1.00
20400;DHT22;10359;53.596;22.520;2024-01-15T07:15:50;2.00;1.00
20400;DHT22;10359;53.596;22.520;2024-01-15T07:18:46;2.00;1.00
20400;DHT22;10359;53.596;22.520;2024-01-15T07:21:37;2.10;1.00
20400;DHT22;10359;53.596;22.520;2024-01-15T07:24:34;2.00;1.00
20400;DHT22;10359;53.596;22.520;2024-01-15T07:27:24;2.00;1.00
20400;DHT22;10359;53.596;22.520;2024-01-15T07:30:20;2.10;1.00
20400;DHT22;10359;53.596;22.520;2024-01-15T07:33:10;2.20;1.00
20400;DHT22;10359;53.596;22.520;2024-01-15T07:36:13;2.20;1.00
20400;DHT22;10359;53.596;22.520;2024-01-15T07:39:04;2.20;1.00
20400;DHT22;10359;53.596;22.520;2024-01-15T07:42:00;2.20;1.00
20400;DHT22;10359;53.596;22.520;2024-01-15T07:44:56;2.20;1.00
20400;DHT22;10359;53.596;22.520;2024-01-15T07:47:46;2.20;1.00
20400;DHT22;10359;53.596;22.520;2024-01-15T07:50:41;2.10;1.00
20400;DHT22;10359;53.596;22.520;2024-01-15T07:53:37;2.20;99.90
20400;DHT22;10359;53.596;22.520;2024-01-15T07:56:53;2.10;1.00
20400;DHT22;10359;53.596;22.520;2024-01-15T07:59:49;2.00;99.90
20400;DHT22;10359;53.596;22.520;2024-01-15T08:02:39;2.20;99.90
20400;DHT22;10359;53.596;22.520;2024-01-15T08:05:36;2.30;83.10
20400;DHT22;10359;53.596;22.520;2024-01-15T08:08:26;2.30;48.70
20400;DHT22;10359;53.596;22.520;2024-01-15T08:11:21;2.30;50.70
20400;DHT22;10359;53.596;22.520;2024-01-15T08:14:12;2.20;12.60
20400;DHT22;10359;53.596;22.520;2024-01-15T08:17:08;2.10;99.90
20400;DHT22;10359;53.596;22.520;2024-01-15T08:20:05;2.10;99.90
20400;DHT22;10359;53.596;22.520;2024-01-15T08:23:01;2.00;99.90
20400;DHT22;10359;53.596;22.520;2024-01-15T08:25:57;1.90;99.90
20400;DHT22;10359;53.596;22.520;2024-01-15T08:28:47;1.80;99.90
20400;DHT22;10359;53.596;22.520;2024-01-15T08:31:45;2.10;99.90
20400;DHT22;10359;53.596;22.520;2024-01-15T08:47:12;2.20;99.90
20400;DHT22;10359;53.596;22.520;2024-01-15T08:49:42;2.30;99.90
20400;DHT22;10359;53.596;22.520;2024-01-15T08:52:13;2.40;99.90
20400;DHT22;10359;53.596;22.520;2024-01-15T08:54:43;2.20;99.90
20400;DHT22;10359;53.596;22.520;2024-01-15T08:57:14;2.10;99.90
20400;DHT22;10359;53.596;22.520;2024-01-15T08:59:43;2.10;99.90
20400;DHT22;10359;53.596;22.520;2024-01-15T09:02:14;2.10;99.90
20400;DHT22;10359;53.596;22.520;2024-01-15T09:04:44;2.20;99.90
20400;DHT22;10359;53.596;22.520;2024-01-15T09:07:14;2.00;84.80
20400;DHT22;10359;53.596;22.520;2024-01-15T09:09:43;2.00;99.90
20400;DHT22;10359;53.596;22.520;2024-01-15T09:12:12;2.10;99.90
20400;DHT22;10359;53.596;22.520;2024-01-15T09:14:43;2.20;99.90
20400;DHT22;10359;53.596;22.520;2024-01-15T09:17:14;2.20;99.90
20400;DHT22;10359;53.596;22.520;2024-01-15T09:19:43;2.20;1.00
20400;DHT22;10359;53.596;22.520;2024-01-15T09:22:13;2.20;21.50
20400;DHT22;10359;53.596;22.520;2024-01-15T09:24:46;2.30;1.00
20400;DHT22;10359;53.596;22.520;2024-01-15T09:27:16;2.50;1.00
20400;DHT22;10359;53.596;22.520;2024-01-15T09:29:48;2.50;1.00
20400;DHT22;10359;53.596;22.520;2024-01-15T09:32:18;2.80;1.00
20400;DHT22;10359;53.596;22.520;2024-01-15T09:34:48;2.80;99.90
20400;DHT22;10359;53.596;22.520;2024-01-15T09:37:18;2.80;99.90
20400;DHT22;10359;53.596;22.520;2024-01-15T09:40:08;2.80;99.90
20400;DHT22;10359;53.596;22.520;2024-01-15T09:42:43;2.90;99.90
20400;DHT22;10359;53.596;22.520;2024-01-15T09:45:13;2.80;63.70
20400;DHT22;10359;53.596;22.520;2024-01-15T09:47:45;2.80;99.90
20400;DHT22;10359;53.596;22.520;2024-01-15T09:50:14;2.70;75.50
20400;DHT22;10359;53.596;22.520;2024-01-15T09:52:45;2.70;76.60
20400;DHT22;10359;53.596;22.520;2024-01-15T09:55:15;2.60;1.00
20400;DHT22;10359;53.596;22.520;2024-01-15T09:57:45;2.70;1.00
20400;DHT22;10359;53.596;22.520;2024-01-15T10:00:17;3.00;1.00
20400;DHT22;10359;53.596;22.520;2024-01-15T10:02:48;3.00;1.00
20400;DHT22;10359;53.596;22.520;2024-01-15T10:05:18;2.70;1.00
20400;DHT22;10359;53.596;22.520;2024-01-15T10:07:48;2.80;1.00
20400;DHT22;10359;53.596;22.520;2024-01-15T10:10:18;3.20;1.00
20400;DHT22;10359;53.596;22.520;2024-01-15T10:12:49;3.10;1.00
20400;DHT22;10359;53.596;22.520;2024-01-15T10:15:22;2.90;1.00
20400;DHT22;10359;53.596;22.520;2024-01-15T10:17:53;2.80;1.00
20400;DHT22;10359;53.596;22.520;2024-01-15T10:20:23;2.80;1.00
20400;DHT22;10359;53.596;22.520;2024-01-15T10:22:52;2.60;1.00
20400;DHT22;10359;53.596;22.520;2024-01-15T10:25:22;2.50;1.00
20400;DHT22;10359;53.596;22.520;2024-01-15T10:28:03;2.40;1.00
20400;DHT22;10359;53.596;22.520;2024-01-15T10:30:32;2.40;1.00
20400;DHT22;10359;53.596;22.520;2024-01-15T10:33:04;2.50;1.00
20400;DHT22;10359;53.596;22.520;2024-01-15T10:35:34;3.00;1.00
20400;DHT22;10359;53.596;22.520;2024-01-15T10:38:05;3.40;1.00
20400;DHT22;10359;53.596;22.520;2024-01-15T10:40:35;3.60;1.00
20400;DHT22;10359;53.596;22.520;2024-01-15T10:43:10;3.30;1.00
20400;DHT22;10359;53.596;22.520;2024-01-15T10:45:39;3.40;1.00
20400;DHT22;10359;53.596;22.520;2024-01-15T10:48:10;3.40;1.00
20400;DHT22;10359;53.596;22.520;2024-01-15T10:50:40;3.40;1.00
20400;DHT22;10359;53.596;22.520;2024-01-15T10:53:11;3.40;1.00
20400;DHT22;10359;53.596;22.520;2024-01-15T10:55:42;3.10;1.00
20400;DHT22;10359;53.596;22.520;2024-01-15T10:58:14;2.90;1.00
20400;DHT22;10359;53.596;22.520;2024-01-15T11:00:44;2.80;1.00
20400;DHT22;10359;53.596;22.520;2024-01-15T11:03:15;3.00;1.00
20400;DHT22;10359;53.596;22.520;2024-01-15T11:05:45;3.00;1.00
20400;DHT22;10359;53.596;22.520;2024-01-15T11:08:17;3.00;1.00
20400;DHT22;10359;53.596;22.520;2024-01-15T11:10:48;3.10;1.00
20400;DHT22;10359;53.596;22.520;2024-01-15T11:13:20;3.00;1.00
20400;DHT22;10359;53.596;22.520;2024-01-15T11:15:57;2.90;1.00
20400;DHT22;10359;53.596;22.520;2024-01-15T11:18:30;3.00;1.00
20400;DHT22;10359;53.596;22.520;2024-01-15T11:21:21;2.80;1.00
20400;DHT22;10359;53.596;22.520;2024-01-15T11:23:53;3.00;1.00
20400;DHT22;10359;53.596;22.520;2024-01-15T11:26:33;3.00;1.00
20400;DHT22;10359;53.596;22.520;2024-01-15T11:29:05;3.00;1.00
20400;DHT22;10359;53.596;22.520;2024-01-15T11:31:56;3.00;1.00
20400;DHT22;10359;53.596;22.520;2024-01-15T11:34:51;2.80;1.00
20400;DHT22;10359;53.596;22.520;2024-01-15T11:37:22;2.80;1.00
20400;DHT22;10359;53.596;22.520;2024-01-15T11:39:54;2.80;1.00
20400;DHT22;10359;53.596;22.520;2024-01-15T11:42:23;2.80;1.00
20400;DHT22;10359;53.596;22.520;2024-01-15T11:44:52;2.80;1.00
20400;DHT22;10359;53.596;22.520;2024-01-15T11:50:30;2.70;1.00
20400;DHT22;10359;53.596;22.520;2024-01-15T11:53:01;2.60;1.00
20400;DHT22;10359;53.596;22.520;2024-01-15T11:55:35;2.70;1.00
20400;DHT22;10359;53.596;22.520;2024-01-15T11:58:09;2.70;1.00
20400;DHT22;10359;53.596;22.520;2024-01-15T12:00:43;2.70;1.00
20400;DHT22;10359;53.596;22.520;2024-01-15T12:03:13;2.80;1.00
20400;DHT22;10359;53.596;22.520;2024-01-15T12:05:44;2.70;1.00
20400;DHT22;10359;53.596;22.520;2024-01-15T12:08:14;3.00;1.00
20400;DHT22;10359;53.596;22.520;2024-01-15T12:10:43;3.10;1.00
20400;DHT22;10359;53.596;22.520;2024-01-15T12:13:14;3.30;1.00
20400;DHT22;10359;53.596;22.520;2024-01-15T12:15:44;3.60;1.00
20400;DHT22;10359;53.596;22.520;2024-01-15T12:18:15;3.50;1.00
20400;DHT22;10359;53.596;22.520;2024-01-15T12:20:47;3.20;1.00
20400;DHT22;10359;53.596;22.520;2024-01-15T12:23:17;3.20;1.00
20400;DHT22;10359;53.596;22.520;2024-01-15T12:25:47;3.20;1.00
20400;DHT22;10359;53.596;22.520;2024-01-15T12:28:16;3.20;1.00
20400;DHT22;10359;53.596;22.520;2024-01-15T12:30:47;3.10;1.00
20400;DHT22;10359;53.596;22.520;2024-01-15T12:33:18;3.00;1.00
20400;DHT22;10359;53.596;22.520;2024-01-15T12:35:53;2.80;1.00
20400;DHT22;10359;53.596;22.520;2024-01-15T12:38:24;2.90;1.00
20400;DHT22;10359;53.596;22.520;2024-01-15T12:40:53;3.00;1.00
20400;DHT22;10359;53.596;22.520;2024-01-15T12:43:24;3.10;1.00
20400;DHT22;10359;53.596;22.520;2024-01-15T12:45:53;3.30;1.00
20400;DHT22;10359;53.596;22.520;2024-01-15T12:48:22;3.10;1.00
20400;DHT22;10359;53.596;22.520;2024-01-15T12:50:55;3.20;1.00
20400;DHT22;10359;53.596;22.520;2024-01-15T12:53:24;3.00;1.00
20400;DHT22;10359;53.596;22.520;2024-01-15T12:55:54;3.00;1.00
20400;DHT22;10359;53.596;22.520;2024-01-15T12:58:23;2.90;1.00
20400;DHT22;10359;53.596;22.520;2024-01-15T13:00:56;2.80;1.00
20400;DHT22;10359;53.596;22.520;2024-01-15T13:03:28;2.80;1.00
20400;DHT22;10359;53.596;22.520;2024-01-15T13:05:58;2.70;1.00
20400;DHT22;10359;53.596;22.520;2024-01-15T13:08:29;2.60;1.00
20400;DHT22;10359;53.596;22.520;2024-01-15T13:10:59;2.70;1.00
20400;DHT22;10359;53.596;22.520;2024-01-15T13:13:28;2.50;1.00
20400;DHT22;10359;53.596;22.520;2024-01-15T13:15:59;2.50;1.00
20400;DHT22;10359;53.596;22.520;2024-01-15T13:18:30;2.50;1.00
20400;DHT22;10359;53.596;22.520;2024-01-15T13:21:02;2.40;1.00
20400;DHT22;10359;53.596;22.520;2024-01-15T13:23:32;2.40;1.00
20400;DHT22;10359;53.596;22.520;2024-01-15T13:26:01;2.40;1.00
20400;DHT22;10359;53.596;22.520;2024-01-15T13:28:30;2.40;1.00
20400;DHT22;10359;53.596;22.520;2024-01-15T13:31:00;2.40;1.00
20400;DHT22;10359;53.596;22.520;2024-01-15T13:33:30;2.40;1.00
20400;DHT22;10359;53.596;22.520;2024-01-15T13:36:01;2.50;1.00
20400;DHT22;10359;53.596;22.520;2024-01-15T13:38:31;2.50;78.60
20400;DHT22;10359;53.596;22.520;2024-01-15T13:41:04;2.40;99.90
20400;DHT22;10359;53.596;22.520;2024-01-15T13:43:33;2.40;99.90
20400;DHT22;10359;53.596;22.520;2024-01-15T13:46:04;2.30;12.60
20400;DHT22;10359;53.596;22.520;2024-01-15T13:48:34;2.20;21.50
20400;DHT22;10359;53.596;22.520;2024-01-15T13:51:07;2.20;33.50
20400;DHT22;10359;53.596;22.520;2024-01-15T13:53:38;2.10;18.60
20400;DHT22;10359;53.596;22.520;2024-01-15T13:56:07;2.00;12.80
20400;DHT22;10359;53.596;22.520;2024-01-15T13:58:38;1.90;39.70
20400;DHT22;10359;53.596;22.520;2024-01-15T14:01:07;1.90;46.10
20400;DHT22;10359;53.596;22.520;2024-01-15T14:03:38;1.90;44.40
20400;DHT22;10359;53.596;22.520;2024-01-15T14:06:10;1.90;24.60
20400;DHT22;10359;53.596;22.520;2024-01-15T14:08:39;1.90;12.30
20400;DHT22;10359;53.596;22.520;2024-01-15T14:11:09;1.90;12.50
20400;DHT22;10359;53.596;22.520;2024-01-15T14:13:39;2.00;12.60
20400;DHT22;10359;53.596;22.520;2024-01-15T14:16:08;2.00;12.30
20400;DHT22;10359;53.596;22.520;2024-01-15T14:18:38;1.90;12.30
20400;DHT22;10359;53.596;22.520;2024-01-15T14:21:10;1.90;99.90
20400;DHT22;10359;53.596;22.520;2024-01-15T14:23:39;1.70;99.90
20400;DHT22;10359;53.596;22.520;2024-01-15T14:26:08;1.60;99.90
20400;DHT22;10359;53.596;22.520;2024-01-15T14:28:38;1.50;99.90
20400;DHT22;10359;53.596;22.520;2024-01-15T14:31:08;1.50;99.90
20400;DHT22;10359;53.596;22.520;2024-01-15T14:33:38;1.60;91.60
20400;DHT22;10359;53.596;22.520;2024-01-15T14:36:09;1.50;12.30
20400;DHT22;10359;53.596;22.520;2024-01-15T14:38:39;1.50;12.10
20400;DHT22;10359;53.596;22.520;2024-01-15T14:41:09;1.30;11.90
20400;DHT22;10359;53.596;22.520;2024-01-15T14:43:39;1.20;44.80
20400;DHT22;10359;53.596;22.520;2024-01-15T14:46:08;1.00;93.90
20400;DHT22;10359;53.596;22.520;2024-01-15T14:48:39;0.80;99.90
20400;DHT22;10359;53.596;22.520;2024-01-15T14:51:10;0.70;99.90
20400;DHT22;10359;53.596;22.520;2024-01-15T14:53:39;0.60;99.90
20400;DHT22;10359;53.596;22.520;2024-01-15T14:56:09;0.50;99.90
20400;DHT22;10359;53.596;22.520;2024-01-15T14:58:41;0.40;99.90
20400;DHT22;10359;53.596;22.520;2024-01-15T15:01:10;0.50;99.90
20400;DHT22;10359;53.596;22.520;2024-01-15T15:03:40;0.60;99.90
20400;DHT22;10359;53.596;22.520;2024-01-15T15:06:11;0.70;99.90
20400;DHT22;10359;53.596;22.520;2024-01-15T15:08:40;0.70;99.90
20400;DHT22;10359;53.596;22.520;2024-01-15T15:11:10;0.90;99.90
20400;DHT22;10359;53.596;22.520;2024-01-15T15:13:40;0.70;99.90
20400;DHT22;10359;53.596;22.520;2024-01-15T15:16:12;0.70;99.90
20400;DHT22;10359;53.596;22.520;2024-01-15T15:18:41;0.50;99.90
20400;DHT22;10359;53.596;22.520;2024-01-15T15:21:13;0.50;99.90
20400;DHT22;10359;53.596;22.520;2024-01-15T15:23:42;0.60;99.90
20400;DHT22;10359;53.596;22.520;2024-01-15T15:26:12;0.70;99.90
20400;DHT22;10359;53.596;22.520;2024-01-15T15:28:41;0.80;99.90
20400;DHT22;10359;53.596;22.520;2024-01-15T15:31:10;0.80;81.50
20400;DHT22;10359;53.596;22.520;2024-01-15T15:33:41;0.70;60.00
20400;DHT22;10359;53.596;22.520;2024-01-15T15:36:10;0.60;99.90
20400;DHT22;10359;53.596;22.520;2024-01-15T15:38:42;0.70;99.90
20400;DHT22;10359;53.596;22.520;2024-01-15T15:41:11;0.80;99.90
20400;DHT22;10359;53.596;22.520;2024-01-15T15:43:41;0.80;65.90
20400;DHT22;10359;53.596;22.520;2024-01-15T15:46:10;0.90;75.80
20400;DHT22;10359;53.596;22.520;2024-01-15T15:48:39;0.90;40.80
20400;DHT22;10359;53.596;22.520;2024-01-15T15:51:09;1.00;74.10
20400;DHT22;10359;53.596;22.520;2024-01-15T15:53:38;0.90;99.90
20400;DHT22;10359;53.596;22.520;2024-01-15T15:56:09;0.90;99.90
20400;DHT22;10359;53.596;22.520;2024-01-15T15:58:39;0.50;80.30
20400;DHT22;10359;53.596;22.520;2024-01-15T16:01:08;0.80;11.90
20400;DHT22;10359;53.596;22.520;2024-01-15T16:03:38;0.70;11.50
20400;DHT22;10359;53.596;22.520;2024-01-15T16:06:08;0.40;1.00
20400;DHT22;10359;53.596;22.520;2024-01-15T16:08:38;0.40;1.00
20400;DHT22;10359;53.596;22.520;2024-01-15T16:11:08;0.40;1.00
20400;DHT22;10359;53.596;22.520;2024-01-15T16:13:38;0.40;1.00
20400;DHT22;10359;53.596;22.520;2024-01-15T16:16:07;0.50;1.00
20400;DHT22;10359;53.596;22.520;2024-01-15T16:18:56;0.20;1.00
20400;DHT22;10359;53.596;22.520;2024-01-15T16:21:46;0.40;1.00
20400;DHT22;10359;53.596;22.520;2024-01-15T16:24:35;0.40;1.00
20400;DHT22;10359;53.596;22.520;2024-01-15T16:27:20;0.50;1.00
20400;DHT22;10359;53.596;22.520;2024-01-15T16:29:49;0.50;1.00
20400;DHT22;10359;53.596;22.520;2024-01-15T16:32:18;0.60;1.00
20400;DHT22;10359;53.596;22.520;2024-01-15T16:34:48;0.20;1.00
20400;DHT22;10359;53.596;22.520;2024-01-15T16:37:17;0.20;1.00
20400;DHT22;10359;53.596;22.520;2024-01-15T16:39:46;0.40;1.00
20400;DHT22;10359;53.596;22.520;2024-01-15T16:42:16;0.30;1.00
20400;DHT22;10359;53.596;22.520;2024-01-15T16:44:48;0.30;1.00
20400;DHT22;10359;53.596;22.520;2024-01-15T16:47:17;0.30;1.00
20400;DHT22;10359;53.596;22.520;2024-01-15T16:49:47;0.20;1.00
20400;DHT22;10359;53.596;22.520;2024-01-15T16:52:17;0.10;1.00
20400;DHT22;10359;53.596;22.520;2024-01-15T16:54:47;0.30;1.00
20400;DHT22;10359;53.596;22.520;2024-01-15T16:57:16;0.10;1.00
20400;DHT22;10359;53.596;22.520;2024-01-15T16:59:47;0.10;1.00
20400;DHT22;10359;53.596;22.520;2024-01-15T17:02:16;0.10;1.00
20400;DHT22;10359;53.596;22.520;2024-01-15T17:04:46;0.20;1.00
20400;DHT22;10359;53.596;22.520;2024-01-15T17:07:16;0.00;1.00
20400;DHT22;10359;53.596;22.520;2024-01-15T17:09:45;0.00;1.00
20400;DHT22;10359;53.596;22.520;2024-01-15T17:12:14;0.00;1.00
20400;DHT22;10359;53.596;22.520;2024-01-15T17:14:44;-0.10;1.00
20400;DHT22;10359;53.596;22.520;2024-01-15T17:17:15;-0.10;1.00
20400;DHT22;10359;53.596;22.520;2024-01-15T17:19:45;-0.20;1.00
20400;DHT22;10359;53.596;22.520;2024-01-15T17:22:14;-0.10;1.00